This demonstration page uses our WeatherBlox Daily Observations layout. Learn more.

Left ArrowRight Arrow

38.88101, -77.10428

Hourly Observations for December 7, 2019

Temp ( °F °C ) Dew Point ( °F °C ) Humidity (%) Winds ( mph kmh ) Pressure ( in mb ) Visibility ( mi km ) Precip ( " mm )
12:52 am 00:52 Cloudy 46 7.8 28 -2.2 50 50 NNW 13 20 30.22 1024 10 16.0934 0 0
1:52 am 01:52 Mostly Cloudy 43 6.1 27 -2.8 53 53 N 16 26 30.26 1025 10 16.0934 0 0
2:52 am 02:52 Mostly Clear 40 4.4 24 -4.4 53 53 NNW 12 19 30.29 1026 10 16.0934 0 0
3:52 am 03:52 Mostly Clear 37 2.8 24 -4.4 59 59 N 8 13 30.31 1026 10 16.0934 0 0
4:52 am 04:52 Clear 37 2.8 22 -5.6 54 54 N 9 15 30.33 1027 10 16.0934 0 0
5:52 am 05:52 Partly Cloudy 35 1.7 21 -6.1 57 57 N 9 15 30.35 1028 10 16.0934 0 0
6:52 am 06:52 Mostly Clear 34 1.1 20 -6.7 56 56 N 8 13 30.38 1029 10 16.0934 0 0
7:52 am 07:52 Partly Cloudy 37 2.8 21 -6.1 52 52 Calm 30.4 1029 10 16.0934 0 0
8:52 am 08:52 Mostly Cloudy 40 4.4 21 -6.1 47 47 N 8 13 30.42 1030 10 16.0934 0 0
9:52 am 09:52 Mostly Cloudy 42 5.6 23 -5 47 47 NNW 7 11 30.43 1030 10 16.0934 0 0
10:52 am 10:52 Mostly Cloudy 43 6.1 22 -5.6 43 43 Calm 30.43 1031 10 16.0934 0 0
11:52 am 11:52 Mostly Cloudy 44 6.7 22 -5.6 41 41 NW 8 13 30.42 1030 10 16.0934 0 0
12:52 pm 12:52 Mostly Cloudy 45 7.2 22 -5.6 40 40 Calm 30.4 1030 10 16.0934 0 0
1:52 pm 13:52 Partly Cloudy 46 7.8 23 -5 40 40 undefined N/A 30.4 1030 10 16.0934 0 0
2:52 pm 14:52 Mostly Sunny 45 7.2 22 -5.6 40 40 VRB 7 11 30.41 1030 10 16.0934 0 0
3:52 pm 15:52 Mostly Sunny 43 6.1 20 -6.7 40 40 NW 7 11 30.42 1030 10 16.0934 0 0
4:52 pm 16:52 Mostly Clear 41 5 21 -6.1 45 45 NW 7 11 30.43 1031 10 16.0934 0 0
5:52 pm 17:52 Mostly Clear 40 4.4 22 -5.6 49 49 W 7 11 30.45 1031 10 16.0934 0 0
6:52 pm 18:52 Mostly Clear 39 3.9 22 -5.6 50 50 NNW 6 9 30.46 1031 10 16.0934 0 0
7:52 pm 19:52 Mostly Clear 36 2.2 23 -5 59 59 N 6 9 30.48 1032 10 16.0934 0 0
8:52 pm 20:52 Mostly Clear 38 3.3 25 -3.9 60 60 ENE 5 7 30.48 1032 10 16.0934 0 0
9:52 pm 21:52 Mostly Clear 37 2.8 24 -4.4 59 59 ENE 5 7 30.49 1033 10 16.0934 0 0
10:52 pm 22:52 Mostly Clear 37 2.8 25 -3.9 62 62 Calm 30.5 1033 10 16.0934 0 0
11:52 pm 23:52 Mostly Clear 35 1.7 25 -3.9 67 67 NE 3 6 30.5 1033 10 16.0934 0 0

Powered by AerisWeather